Sisters, OR

4:45 AM PDT on August 31, 2014 (GMT -0700)
Sage Meadow | Change Station
CLOSE
Current Station
Personal Weather Station
Location: Sisters, OR
Elevation: 3163 ft
Nearby Weather Stations

Elev 3163 ft 44.33 °N, 121.54 °W | Updated 16 seconds ago

Overcast
Overcast
50.9 °F
Feels Like 50.9 °F
N
0.0
Wind Variable Wind from West
Gusts 0.0 mph

Today
High -- | Low -- °F
--% Chance of Precip.
Yesterday
High -- | Low -- °F
Precip. -- in
6:27 AM 7:43 PM
Waxing Crescent, 30% visible
Pressure 30.02 in
Visibility 10.0 miles
Clouds Overcast 4300 ft
Dew Point 43 °F
Humidity 73%
Rainfall 0.00 in
Snow Depth 0 in , 0 in
UV 0 out of 12
Pollen 2.20 out of 12
Air Quality Not available.
Flu Activity Not available.
METAR KRDM 311056Z AUTO 22004KT 10SM OVC043 10/07 A3005 RMK AO2 SLP165 T01000067

More Conditions Fewer Conditions

Pressure 30.02 in
Visibility 10.0 miles
Clouds Overcast 4300 ft
Dew Point 43 °F
Humidity 73%
Rainfall 0.00 in
Snow Depth 0 in , 0 in
UV 0 out of 12
Pollen 2.20 out of 12
Air Quality Not available.
Flu Activity Not available.
METAR KRDM 311056Z AUTO 22004KT 10SM OVC043 10/07 A3005 RMK AO2 SLP165 T01000067

More Conditions Fewer Conditions

10-Day Weather Forecast

Almanac

Astronomy

Aug. 31, 2014 Rise Set
Actual Time 6:27 AM PDT 7:43 PM PDT
Civil Twilight 5:57 AM PDT 8:13 PM PDT
Nautical Twilight 5:21 AM PDT 8:49 PM PDT
Astronomical Twilight 4:43 AM PDT 9:27 PM PDT
Moon 12:33 PM PDT 10:48 PM PDT
Length of Visible Light 14h 15m
Length of Day
13h 16m
Tomorrow will be 2m 57s shorter.
Waxing Crescent, 30% of the Moon is Illuminated
Today
Waxing Crescent
Sep 2
First Quarter
Sep 8
Full
Sep 15
Last Quarter
Sep 24
New

Today's Extremes

State Highs State Lows

Community

WunderPhotos

Upload Photos

1,748,848 photos uploaded!

Nearby

Snow Depth

Station Depth Elevation
Three Creeks Meadow 0 in 5650 ft
Hogg Pass 0 in 4760 ft
Mckenzie 0 in 4800 ft
Daly Lake 0 in 3600 ft
Roaring River 0 in 4900 ft

Earthquake Activity

City Distance Mag. Time & Date
No recent earthquake activity has been reported nearby.
Minimum magnitude displayed is 2.5.

Coastal Water Temperatures

Place Temperature
No Stations Reporting

Nearby Weather Stations